createdAt,value
2023-04-07T00:02:19.728Z,3.85
2023-04-07T00:07:23.468Z,3.88
2023-04-07T00:12:26.703Z,3.89
2023-04-07T00:17:30.070Z,3.82
2023-04-07T00:22:33.992Z,3.80
2023-04-07T00:27:37.403Z,3.81
2023-04-07T00:32:40.929Z,3.80
2023-04-07T00:37:44.347Z,3.85
2023-04-07T00:42:47.507Z,3.91
2023-04-07T00:47:51.535Z,3.91
2023-04-07T00:52:57.172Z,3.92
2023-04-07T00:58:00.570Z,3.96
2023-04-07T01:03:12.063Z,3.95
2023-04-07T01:08:21.923Z,3.97
2023-04-07T01:13:35.275Z,3.93
2023-04-07T01:18:51.391Z,3.90
2023-04-07T01:24:11.617Z,3.87
2023-04-07T01:29:34.419Z,3.84
2023-04-07T01:34:39.195Z,3.93
2023-04-07T01:39:42.863Z,4.04
2023-04-07T01:44:48.183Z,4.11
2023-04-07T01:49:52.494Z,4.09
2023-04-07T01:54:55.757Z,4.06
2023-04-07T01:59:59.600Z,4.01
2023-04-07T02:05:12.766Z,3.93
2023-04-07T02:10:18.975Z,3.91
2023-04-07T02:15:23.572Z,3.91
2023-04-07T02:20:28.661Z,3.91
2023-04-07T02:25:32.999Z,3.91
2023-04-07T02:30:36.610Z,3.88
2023-04-07T02:35:41.040Z,3.91
2023-04-07T02:40:44.375Z,3.97
2023-04-07T02:45:48.324Z,4.01
2023-04-07T02:50:51.856Z,4.06
2023-04-07T02:55:55.189Z,4.18
2023-04-07T03:00:58.528Z,4.15
2023-04-07T03:06:06.253Z,4.09
2023-04-07T03:11:11.072Z,4.03
2023-04-07T03:16:14.667Z,3.98
2023-04-07T03:21:32.012Z,4.04
2023-04-07T03:26:35.575Z,4.00
2023-04-07T03:31:39.629Z,4.05
2023-04-07T03:36:43.139Z,4.15
2023-04-07T03:41:46.327Z,4.18
2023-04-07T03:46:50.924Z,4.13
2023-04-07T03:51:56.581Z,4.10
2023-04-07T03:57:00.012Z,4.07
2023-04-07T04:02:03.566Z,4.14
2023-04-07T04:07:07.243Z,4.09
2023-04-07T04:12:26.468Z,3.98
2023-04-07T04:17:41.780Z,3.93
2023-04-07T04:22:45.388Z,3.97
2023-04-07T04:27:49.048Z,4.09
2023-04-07T04:33:01.358Z,4.13
2023-04-07T04:38:12.776Z,4.17
2023-04-07T04:43:19.900Z,4.11
2023-04-07T04:48:23.539Z,4.08
2023-04-07T04:53:27.836Z,4.08
2023-04-07T04:58:34.471Z,4.05
2023-04-07T05:03:38.039Z,3.96
2023-04-07T05:08:47.687Z,3.96
2023-04-07T05:13:52.130Z,4.00
2023-04-07T05:18:55.600Z,4.14
2023-04-07T05:24:01.586Z,4.26
2023-04-07T05:29:06.513Z,4.33
2023-04-07T05:34:10.538Z,4.34
2023-04-07T05:39:17.725Z,4.22
2023-04-07T05:44:21.726Z,4.24
2023-04-07T05:49:25.843Z,4.26
2023-04-07T05:54:36.810Z,4.28
2023-04-07T05:59:41.282Z,4.30
2023-04-07T06:04:44.779Z,4.24
2023-04-07T06:09:52.727Z,4.33
2023-04-07T06:14:56.561Z,4.43
2023-04-07T06:19:59.845Z,4.49
2023-04-07T06:25:03.411Z,4.53
2023-04-07T06:30:09.151Z,4.47
2023-04-07T06:35:12.543Z,4.48
2023-04-07T06:40:15.886Z,4.44
2023-04-07T06:45:19.116Z,4.46
2023-04-07T06:50:22.441Z,4.39
2023-04-07T06:55:27.416Z,4.42
2023-04-07T07:00:31.298Z,4.50
2023-04-07T07:05:34.591Z,4.60
2023-04-07T07:10:37.774Z,4.67
2023-04-07T07:15:41.257Z,4.65
2023-04-07T07:20:44.687Z,4.66
2023-04-07T07:25:48.471Z,4.71
2023-04-07T07:30:52.028Z,4.72
2023-04-07T07:35:55.412Z,4.74
2023-04-07T07:40:58.831Z,4.68
2023-04-07T07:46:02.273Z,4.69
2023-04-07T07:51:07.403Z,4.73
2023-04-07T07:56:11.057Z,4.82
2023-04-07T08:01:14.396Z,4.97
2023-04-07T08:06:18.075Z,5.08
2023-04-07T08:11:21.608Z,5.14
2023-04-07T08:16:24.932Z,5.11
2023-04-07T08:21:28.853Z,5.07
2023-04-07T08:26:32.285Z,4.94
2023-04-07T08:31:35.686Z,4.91
2023-04-07T08:36:38.982Z,4.81
2023-04-07T08:41:42.851Z,4.79
2023-04-07T08:46:47.685Z,4.89
2023-04-07T08:51:52.774Z,5.00
2023-04-07T08:56:56.794Z,5.04
2023-04-07T09:02:01.017Z,5.07
2023-04-07T09:07:04.455Z,5.07
2023-04-07T09:12:07.644Z,5.09
2023-04-07T09:17:10.899Z,5.07
2023-04-07T09:22:14.946Z,5.09
2023-04-07T09:27:19.348Z,5.06
2023-04-07T09:32:39.775Z,5.03
2023-04-07T09:37:43.900Z,5.04
2023-04-07T09:42:48.517Z,5.12
2023-04-07T09:47:52.171Z,5.17
2023-04-07T09:52:55.558Z,5.14
2023-04-07T09:58:00.003Z,5.17
2023-04-07T10:03:04.634Z,5.19
2023-04-07T10:08:08.411Z,5.15
2023-04-07T10:13:12.995Z,5.13
2023-04-07T10:18:18.751Z,5.11
2023-04-07T10:23:40.591Z,5.15
2023-04-07T10:28:47.050Z,5.31
2023-04-07T10:33:53.152Z,5.36
2023-04-07T10:39:16.726Z,5.36
2023-04-07T10:44:38.831Z,5.39
2023-04-07T10:50:23.063Z,5.35
2023-04-07T10:55:33.802Z,5.35
2023-04-07T11:00:37.498Z,5.34
2023-04-07T11:05:41.702Z,5.40
2023-04-07T11:10:48.539Z,5.43
2023-04-07T11:15:54.585Z,5.37
2023-04-07T11:21:01.167Z,5.41
2023-04-07T11:26:05.011Z,5.52
2023-04-07T11:31:12.235Z,5.54
2023-04-07T11:36:27.462Z,5.46
2023-04-07T11:43:26.717Z,5.53
2023-04-07T11:48:32.369Z,5.50
2023-04-07T11:53:41.302Z,5.53
2023-04-07T11:58:55.103Z,5.60
2023-04-07T12:04:06.909Z,5.67
2023-04-07T12:09:36.531Z,5.71
2023-04-07T12:14:41.716Z,5.67
2023-04-07T12:19:45.656Z,5.72
2023-04-07T12:24:49.117Z,5.73
2023-04-07T12:30:04.559Z,5.73
2023-04-07T12:35:11.671Z,5.68
2023-04-07T12:40:16.352Z,5.65
2023-04-07T12:45:26.185Z,5.73
2023-04-07T12:50:36.492Z,5.81
2023-04-07T12:57:39.733Z,5.87
2023-04-07T13:01:59.224Z,5.95
2023-04-07T13:07:17.774Z,5.97
2023-04-07T13:12:24.116Z,5.99
2023-04-07T13:18:02.498Z,5.91
2023-04-07T13:23:09.637Z,5.93
2023-04-07T13:28:13.344Z,5.94
2023-04-07T13:33:16.710Z,5.89
2023-04-07T13:42:52.997Z,5.99
2023-04-07T13:48:33.102Z,6.00
2023-04-07T13:54:07.992Z,6.00
2023-04-07T13:59:13.842Z,6.00
2023-04-07T14:04:21.541Z,6.06
2023-04-07T14:09:26.736Z,6.14
2023-04-07T14:14:41.413Z,6.19
2023-04-07T14:19:46.864Z,6.21
2023-04-07T14:25:24.042Z,6.26
2023-04-07T14:31:03.161Z,6.31
2023-04-07T14:36:05.973Z,6.31
2023-04-07T14:41:11.037Z,6.39
2023-04-07T14:46:21.387Z,6.43
2023-04-07T14:51:30.413Z,6.36
2023-04-07T14:56:34.343Z,6.35
2023-04-07T15:01:52.057Z,6.35
2023-04-07T15:06:57.752Z,6.37
2023-04-07T15:12:05.515Z,6.45
2023-04-07T15:17:08.884Z,6.49
2023-04-07T15:22:12.096Z,6.46
2023-04-07T15:27:16.042Z,6.47
2023-04-07T15:32:19.156Z,6.43
2023-04-07T15:37:22.446Z,6.32
2023-04-07T15:42:25.775Z,6.23
2023-04-07T15:47:29.400Z,6.20
2023-04-07T15:52:33.084Z,6.20
2023-04-07T15:57:36.539Z,6.29
2023-04-07T16:02:40.224Z,6.22
2023-04-07T16:07:44.673Z,6.31
2023-04-07T16:12:50.921Z,6.42
2023-04-07T16:17:54.279Z,6.36
2023-04-07T16:22:57.746Z,6.27
2023-04-07T16:28:00.893Z,6.20
2023-04-07T16:33:04.623Z,6.13
2023-04-07T16:38:08.087Z,6.16
2023-04-07T16:43:11.994Z,6.20
2023-04-07T16:48:15.515Z,6.19
2023-04-07T16:53:21.321Z,6.19
2023-04-07T16:58:27.602Z,6.21
2023-04-07T17:03:32.106Z,6.26
2023-04-07T17:08:40.089Z,6.29
2023-04-07T17:13:43.948Z,6.26
2023-04-07T17:19:13.400Z,6.10
2023-04-07T17:24:18.333Z,6.03
2023-04-07T17:29:29.537Z,6.05
2023-04-07T17:36:23.847Z,6.09
2023-04-07T17:47:17.089Z,6.40
2023-04-07T18:04:44.408Z,6.20
2023-04-07T18:11:12.912Z,6.06
2023-04-07T18:56:58.178Z,6.07
2023-04-07T19:02:01.885Z,6.19
2023-04-07T19:07:06.017Z,6.10
2023-04-07T19:12:09.666Z,6.02
2023-04-07T19:17:13.307Z,5.96
2023-04-07T19:22:16.791Z,5.89
2023-04-07T19:27:21.022Z,5.92
2023-04-07T19:32:24.402Z,5.98
2023-04-07T19:37:27.778Z,6.06
2023-04-07T19:42:31.733Z,6.04
2023-04-07T19:47:36.148Z,6.00
2023-04-07T19:52:39.550Z,6.03
2023-04-07T19:57:44.000Z,5.96
2023-04-07T20:02:47.557Z,5.92
2023-04-07T20:07:51.029Z,5.97
2023-04-07T20:12:55.397Z,6.03
2023-04-07T20:17:58.760Z,5.95
2023-04-07T20:23:02.380Z,5.92
2023-04-07T20:28:05.925Z,5.91
2023-04-07T20:33:09.790Z,5.94
2023-04-07T20:38:13.442Z,5.94
2023-04-07T20:43:18.362Z,5.98
2023-04-07T20:48:24.737Z,5.97
2023-04-07T20:53:28.029Z,5.90
2023-04-07T20:58:31.964Z,5.89
2023-04-07T21:03:36.717Z,5.84
2023-04-07T21:08:40.085Z,5.84
2023-04-07T21:13:43.483Z,5.80
2023-04-07T21:18:46.885Z,5.75
2023-04-07T21:23:50.590Z,5.76
2023-04-07T21:28:54.159Z,5.76
2023-04-07T21:33:57.419Z,5.76
2023-04-07T21:39:00.893Z,5.74
2023-04-07T21:44:07.811Z,5.70
2023-04-07T21:49:11.311Z,5.66
2023-04-07T21:54:14.801Z,5.63
2023-04-07T21:59:19.210Z,5.59
2023-04-07T22:04:22.518Z,5.56
2023-04-07T22:09:26.319Z,5.62
2023-04-07T22:14:29.559Z,5.68
2023-04-07T22:19:32.818Z,5.70
2023-04-07T22:24:36.283Z,5.69
2023-04-07T22:29:39.604Z,5.63
2023-04-07T22:34:42.872Z,5.62
2023-04-07T22:39:46.582Z,5.62
2023-04-07T22:44:49.800Z,5.63
2023-04-07T22:49:53.197Z,5.61
2023-04-07T22:54:57.951Z,5.60
2023-04-07T23:00:01.423Z,5.57
2023-04-07T23:05:07.757Z,5.53
2023-04-07T23:10:11.536Z,5.56
2023-04-07T23:15:14.965Z,5.53
2023-04-07T23:20:18.387Z,5.50
2023-04-07T23:25:22.203Z,5.41
2023-04-07T23:30:25.747Z,5.35
2023-04-07T23:35:29.184Z,5.31
2023-04-07T23:40:32.476Z,5.30
2023-04-07T23:45:36.686Z,5.28
2023-04-07T23:50:39.885Z,5.27
2023-04-07T23:55:43.344Z,5.28
